Troutville, Virginia
Current Conditions -  °F | °C
As of 8:54 PM on Monday 20 Oct 2014 (Local Time) from KROA Reporting Station
Overcast Overcast  
Wind Chill: 62°   Ceiling: 11000
Heat Index: 62°   Visibility: 10mi
Dew Point: 38°   Wind: 0mph
Humidity: 41%   Direction: NA
Pressure: 29.97"   Gusts: NA
Location:  37.42°N, 79.87°W
Report Text: KROA 210054Z 00000KT 10SM FEW055 OVC110 17/03 A2997 RMK AO2 SLP147 T01670033
Loading
Personal Weather Stations






























Interactive Weather Map
Tropical Storm Tracking
New forecast layout! Learn more

10-Day Weather Forecast

Advertisements
Track Severe Weather on mobile